createdAt,value
2018-12-17T00:01:35.690Z,95.10
2018-12-17T00:06:29.095Z,94.59
2018-12-17T00:11:22.471Z,94.63
2018-12-17T00:16:15.766Z,94.60
2018-12-17T00:21:09.212Z,94.74
2018-12-17T00:42:16.799Z,95.54
2018-12-17T00:47:10.140Z,96.27
2018-12-17T00:52:03.449Z,95.27
2018-12-17T00:56:56.796Z,94.30
2018-12-17T01:01:50.149Z,95.28
2018-12-17T01:06:43.418Z,94.65
2018-12-17T01:11:36.770Z,94.22
2018-12-17T01:16:30.035Z,94.58
2018-12-17T01:21:23.393Z,95.01
2018-12-17T01:42:31.013Z,93.83
2018-12-17T01:47:24.334Z,93.45
2018-12-17T01:52:17.634Z,92.81
2018-12-17T01:57:10.952Z,93.28
2018-12-17T02:02:04.417Z,93.31
2018-12-17T02:06:57.695Z,93.79
2018-12-17T02:11:51.054Z,94.05
2018-12-17T02:16:44.330Z,93.73
2018-12-17T02:21:37.675Z,93.72
2018-12-17T02:42:45.565Z,91.95
2018-12-17T02:47:38.945Z,92.09
2018-12-17T02:52:32.250Z,91.95
2018-12-17T02:57:25.530Z,91.45
2018-12-17T03:02:18.883Z,91.55
2018-12-17T03:07:12.172Z,92.13
2018-12-17T03:12:05.594Z,91.83
2018-12-17T03:16:58.875Z,91.31
2018-12-17T03:21:52.144Z,91.43
2018-12-17T03:43:00.171Z,93.43
2018-12-17T03:47:53.612Z,94.24
2018-12-17T03:52:46.891Z,94.53
2018-12-17T03:57:40.162Z,93.23
2018-12-17T04:02:33.479Z,92.53
2018-12-17T04:07:26.822Z,92.52
2018-12-17T04:12:20.122Z,92.71
2018-12-17T04:17:13.409Z,91.98
2018-12-17T04:22:06.703Z,91.90
2018-12-17T04:43:14.213Z,92.33
2018-12-17T04:48:07.578Z,92.09
2018-12-17T04:53:00.870Z,92.68
2018-12-17T04:57:54.207Z,92.28
2018-12-17T05:02:47.542Z,92.66
2018-12-17T05:07:40.818Z,92.79
2018-12-17T05:12:34.115Z,93.58
2018-12-17T05:17:27.407Z,92.34
2018-12-17T05:22:20.707Z,92.40
2018-12-17T05:43:28.070Z,92.33
2018-12-17T05:48:21.451Z,92.37
2018-12-17T05:53:14.913Z,92.69
2018-12-17T05:58:08.297Z,92.68
2018-12-17T06:03:01.608Z,92.67
2018-12-17T06:07:54.918Z,92.61
2018-12-17T06:12:48.307Z,93.12
2018-12-17T06:17:41.630Z,92.76
2018-12-17T06:22:34.926Z,92.39
2018-12-17T06:43:42.713Z,90.60
2018-12-17T06:48:36.138Z,89.81
2018-12-17T06:53:29.451Z,90.51
2018-12-17T06:58:23.473Z,90.35
2018-12-17T07:03:16.806Z,89.84
2018-12-17T07:08:10.165Z,89.42
2018-12-17T07:13:04.088Z,89.04
2018-12-17T07:17:57.519Z,89.31
2018-12-17T07:22:50.981Z,88.64
2018-12-17T07:43:58.780Z,86.72
2018-12-17T07:48:52.087Z,85.98
2018-12-17T07:53:45.394Z,85.85
2018-12-17T07:58:38.869Z,85.03
2018-12-17T08:03:32.187Z,85.18
2018-12-17T08:08:25.454Z,84.94
2018-12-17T08:13:19.051Z,86.38
2018-12-17T08:18:28.204Z,86.02
2018-12-17T08:23:21.693Z,85.34
2018-12-17T08:44:30.202Z,86.35
2018-12-17T08:49:23.548Z,85.80
2018-12-17T08:54:17.073Z,86.90
2018-12-17T08:59:12.637Z,86.36
2018-12-17T09:04:09.985Z,86.74
2018-12-17T09:09:11.865Z,86.88
2018-12-17T09:14:14.387Z,86.43
2018-12-17T09:19:19.046Z,86.13
2018-12-17T09:24:17.561Z,85.83
2018-12-17T09:45:25.811Z,84.32
2018-12-17T09:50:19.183Z,84.87
2018-12-17T09:55:12.858Z,85.10
2018-12-17T10:00:08.176Z,85.83
2018-12-17T10:05:01.456Z,85.03
2018-12-17T10:26:09.510Z,83.53
2018-12-17T10:31:03.336Z,84.06
2018-12-17T10:35:56.808Z,83.99
2018-12-17T10:40:50.087Z,83.31
2018-12-17T10:45:43.487Z,83.82
2018-12-17T11:06:51.840Z,82.74
2018-12-17T11:11:45.242Z,81.61
2018-12-17T11:16:38.584Z,80.12
2018-12-17T11:21:32.567Z,79.40
2018-12-17T11:42:39.502Z,78.23
2018-12-17T11:47:32.823Z,78.02
2018-12-17T11:52:26.122Z,76.98
2018-12-17T12:02:41.318Z,76.82
2018-12-17T12:07:34.760Z,76.71
2018-12-17T12:12:28.135Z,76.95
2018-12-17T12:17:21.436Z,76.95
2018-12-17T12:22:14.791Z,77.20
2018-12-17T12:43:22.108Z,77.28
2018-12-17T12:48:15.560Z,77.70
2018-12-17T12:53:08.966Z,77.44
2018-12-17T12:58:03.742Z,77.65
2018-12-17T13:02:57.879Z,76.87
2018-12-17T13:24:05.380Z,77.58
2018-12-17T13:28:59.258Z,77.15
2018-12-17T13:33:52.944Z,77.10
2018-12-17T13:38:46.376Z,77.98
2018-12-17T13:43:39.787Z,79.26
2018-12-17T13:59:22.859Z,79.17
2018-12-17T14:04:16.296Z,79.94
2018-12-17T14:09:09.683Z,79.93
2018-12-17T14:14:03.147Z,80.25
2018-12-17T14:35:10.366Z,80.07
2018-12-17T14:40:07.667Z,79.87
2018-12-17T14:45:01.070Z,79.90
2018-12-17T14:49:54.565Z,79.78
2018-12-17T14:54:47.974Z,80.07
2018-12-17T14:59:54.427Z,80.72
2018-12-17T15:37:07.696Z,83.64
2018-12-17T15:42:01.022Z,83.83
2018-12-17T15:46:54.298Z,83.77
2018-12-17T15:51:47.596Z,83.66
2018-12-17T15:56:40.917Z,83.63
2018-12-17T16:01:34.196Z,83.72
2018-12-17T16:06:27.668Z,83.47
2018-12-17T16:11:21.681Z,83.72
2018-12-17T16:16:15.118Z,83.67
2018-12-17T16:37:23.997Z,83.77
2018-12-17T16:42:17.270Z,84.29
2018-12-17T16:47:23.822Z,84.11
2018-12-17T16:52:24.931Z,85.38
2018-12-17T17:40:07.537Z,87.45
2018-12-17T17:45:17.568Z,87.20
2018-12-17T17:50:23.570Z,87.31
2018-12-17T17:55:28.479Z,86.93
2018-12-17T18:00:32.901Z,87.03
2018-12-17T18:05:34.400Z,86.52
2018-12-17T18:37:30.977Z,87.68
2018-12-17T18:53:28.535Z,89.40
2018-12-17T19:09:22.201Z,88.33
2018-12-17T19:14:29.086Z,88.45
2018-12-17T19:19:41.719Z,87.92
2018-12-17T19:24:46.710Z,87.91
2018-12-17T19:46:04.420Z,86.65
2018-12-17T19:56:17.835Z,86.69
2018-12-17T20:01:22.534Z,86.88
2018-12-17T20:22:39.722Z,86.00
2018-12-17T20:32:53.512Z,86.49
2018-12-17T20:37:55.005Z,86.66
2018-12-17T20:53:47.534Z,85.73
2018-12-17T20:58:53.079Z,86.19
2018-12-17T21:04:00.692Z,87.26
2018-12-17T21:09:05.214Z,87.00
2018-12-17T21:30:31.674Z,85.61
2018-12-17T21:35:33.850Z,86.37
2018-12-17T21:40:36.233Z,86.59
2018-12-17T21:45:39.973Z,87.20
2018-12-17T21:50:46.517Z,87.12
2018-12-17T21:55:52.824Z,87.98
2018-12-17T22:06:18.611Z,87.77
2018-12-17T22:11:21.725Z,87.64
2018-12-17T22:47:55.405Z,88.04
2018-12-17T22:53:02.653Z,88.33
2018-12-17T22:58:08.222Z,88.92
2018-12-17T23:03:12.396Z,89.16
2018-12-17T23:08:15.485Z,88.17
2018-12-17T23:13:32.852Z,88.76
2018-12-17T23:34:50.797Z,88.14
2018-12-17T23:39:57.755Z,88.57
2018-12-17T23:45:01.035Z,87.82
2018-12-17T23:50:03.160Z,88.28
2018-12-17T23:55:05.919Z,88.11
